Time;durP1;ratioP1;P1;durP2;ratioP2;P2;SDS_P1;SDS_P2;PMS_P1;PMS_P2;Temp;Humidity;BMP_temperature;BMP_pressure;BME280_temperature;BME280_humidity;BME280_pressure;Samples;Min_cycle;Max_cycle;Signal;HPM_P1;HPM_P2
2024/01/28 00:00:42;;;;;;;18.60;8.80;;;-0.10;99.90;;;;;;5049495;28;20466;-56
2024/01/28 00:03:08;;;;;;;18.40;8.20;;;0.00;99.90;;;;;;5047981;28;20458;-55
2024/01/28 00:05:37;;;;;;;21.70;8.33;;;0.00;99.90;;;;;;5047532;28;20478;-56
2024/01/28 00:08:04;;;;;;;17.83;8.30;;;0.00;99.90;;;;;;5043773;28;20458;-56
2024/01/28 00:10:31;;;;;;;21.83;9.30;;;-0.10;99.90;;;;;;5047078;28;20861;-56
2024/01/28 00:12:57;;;;;;;15.60;8.27;;;-0.20;99.90;;;;;;5043191;28;20493;-56
2024/01/28 00:15:24;;;;;;;14.60;7.70;;;-0.20;99.90;;;;;;5048498;28;20493;-56
2024/01/28 00:17:51;;;;;;;17.23;8.57;;;-0.20;99.90;;;;;;5039490;28;20513;-57
2024/01/28 00:20:18;;;;;;;14.30;7.40;;;-0.20;99.90;;;;;;5048208;28;20496;-56
2024/01/28 00:22:45;;;;;;;13.27;6.80;;;-0.20;99.90;;;;;;5043800;28;21040;-55
2024/01/28 00:25:12;;;;;;;15.80;7.30;;;-0.30;99.90;;;;;;5043285;28;20481;-56
2024/01/28 00:27:38;;;;;;;14.40;7.00;;;-0.30;99.90;;;;;;5051867;28;20462;-55
2024/01/28 00:30:08;;;;;;;19.97;8.07;;;-0.20;99.90;;;;;;5049486;28;20994;-55
2024/01/28 00:32:35;;;;;;;14.30;7.23;;;-0.20;99.90;;;;;;5049108;28;20489;-56
2024/01/28 00:35:03;;;;;;;15.53;6.90;;;-0.20;99.90;;;;;;5042506;28;20869;-55
2024/01/28 00:37:30;;;;;;;11.73;6.53;;;-0.20;99.90;;;;;;5050085;28;20462;-55
2024/01/28 00:39:58;;;;;;;15.77;6.20;;;-0.20;99.90;;;;;;5049736;28;20481;-55
2024/01/28 00:42:25;;;;;;;15.60;6.13;;;-0.20;99.90;;;;;;5051544;28;20492;-55
2024/01/28 00:44:51;;;;;;;12.70;6.53;;;-0.30;99.90;;;;;;5052981;28;20565;-55
2024/01/28 00:47:18;;;;;;;12.90;6.90;;;-0.30;99.90;;;;;;5054699;28;20744;-55
2024/01/28 00:49:44;;;;;;;19.87;7.73;;;-0.30;99.90;;;;;;5048760;28;20519;-55
2024/01/28 00:52:11;;;;;;;15.27;6.80;;;-0.30;99.90;;;;;;5052637;28;20488;-55
2024/01/28 00:54:38;;;;;;;16.53;5.93;;;-0.30;99.90;;;;;;5048958;28;20457;-56
2024/01/28 00:57:06;;;;;;;14.50;6.57;;;-0.30;99.90;;;;;;5051170;28;20469;-55
2024/01/28 00:59:33;;;;;;;14.17;6.57;;;-0.30;99.90;;;;;;5051771;28;20623;-55
2024/01/28 01:01:59;;;;;;;16.53;6.97;;;-0.30;99.90;;;;;;5051040;28;20515;-54
2024/01/28 01:04:26;;;;;;;13.27;6.10;;;-0.30;99.90;;;;;;5050474;28;20509;-56
2024/01/28 01:06:52;;;;;;;10.17;6.60;;;-0.30;99.90;;;;;;5045945;28;20535;-55
2024/01/28 01:09:19;;;;;;;16.47;7.10;;;-0.30;99.90;;;;;;5052742;28;20481;-55
2024/01/28 01:11:45;;;;;;;17.93;7.17;;;-0.30;99.90;;;;;;5051159;28;20527;-55
2024/01/28 01:14:13;;;;;;;13.30;6.33;;;-0.30;99.90;;;;;;5051802;28;20442;-55
2024/01/28 01:16:40;;;;;;;15.20;6.03;;;-0.30;99.90;;;;;;5045602;28;20492;-56
2024/01/28 01:19:06;;;;;;;8.50;6.17;;;-0.30;99.90;;;;;;5048162;28;20477;-56
2024/01/28 01:21:33;;;;;;;14.87;5.93;;;-0.40;99.90;;;;;;5053503;28;20442;-56
2024/01/28 01:23:59;;;;;;;16.47;6.77;;;-0.40;99.90;;;;;;5054748;28;20782;-58
2024/01/28 01:26:26;;;;;;;15.13;5.83;;;-0.50;99.90;;;;;;5052155;28;20513;-56
2024/01/28 01:28:53;;;;;;;13.20;5.60;;;-0.50;99.90;;;;;;5053092;28;20505;-56
2024/01/28 01:31:21;;;;;;;11.67;5.77;;;-0.50;99.90;;;;;;5053549;28;20441;-56
2024/01/28 01:33:47;;;;;;;14.57;6.93;;;-0.60;99.90;;;;;;5045821;28;20551;-55
2024/01/28 01:36:14;;;;;;;13.67;6.73;;;-0.60;99.90;;;;;;5051922;28;20561;-55
2024/01/28 01:38:40;;;;;;;14.10;5.73;;;-0.60;99.90;;;;;;5051722;28;20517;-61
2024/01/28 01:41:07;;;;;;;15.43;6.33;;;-0.60;99.90;;;;;;5051475;28;20458;-55
2024/01/28 01:43:33;;;;;;;13.30;5.87;;;-0.60;99.90;;;;;;5052113;28;20501;-55
2024/01/28 01:46:00;;;;;;;20.40;7.07;;;-0.60;99.90;;;;;;5051534;28;20548;-55
2024/01/28 01:48:28;;;;;;;9.47;5.57;;;-0.70;99.90;;;;;;5049154;28;20547;-56
2024/01/28 01:50:55;;;;;;;12.40;5.47;;;-0.70;99.90;;;;;;5044407;28;20536;-55
2024/01/28 01:53:22;;;;;;;12.87;6.37;;;-0.70;99.90;;;;;;5050759;28;20931;-55
2024/01/28 01:55:49;;;;;;;15.30;5.70;;;-0.70;99.90;;;;;;5040719;28;20578;-55
2024/01/28 01:58:16;;;;;;;15.37;6.80;;;-0.70;99.90;;;;;;5046690;28;21299;-55
2024/01/28 02:00:42;;;;;;;12.07;5.60;;;-0.70;99.90;;;;;;5048533;28;20497;-56
2024/01/28 02:03:09;;;;;;;15.27;6.03;;;-0.70;99.90;;;;;;5046663;28;20599;-56
2024/01/28 02:05:37;;;;;;;13.37;5.67;;;-0.70;99.90;;;;;;5048334;28;20517;-56
2024/01/28 02:08:04;;;;;;;14.07;6.47;;;-0.70;99.90;;;;;;5047970;28;20458;-56
2024/01/28 02:10:30;;;;;;;10.43;5.20;;;-0.70;99.90;;;;;;5044471;28;20951;-56
2024/01/28 02:12:57;;;;;;;12.13;5.50;;;-0.80;99.90;;;;;;5047625;28;20517;-56
2024/01/28 02:15:23;;;;;;;14.63;5.80;;;-0.70;99.90;;;;;;5046550;28;20522;-56
2024/01/28 02:17:50;;;;;;;13.30;5.30;;;-0.80;99.90;;;;;;5048172;28;20470;-56
2024/01/28 02:20:17;;;;;;;18.87;5.70;;;-0.80;99.90;;;;;;5042116;28;20550;-55
2024/01/28 02:22:45;;;;;;;17.20;6.50;;;-0.80;99.90;;;;;;5049180;28;20485;-55
2024/01/28 02:25:13;;;;;;;14.87;6.00;;;-0.80;99.90;;;;;;5047056;28;20532;-55
2024/01/28 02:27:41;;;;;;;20.10;5.93;;;-0.80;99.90;;;;;;5047786;28;20500;-54
2024/01/28 02:30:09;;;;;;;16.17;6.63;;;-0.80;99.90;;;;;;5043811;28;20490;-55
2024/01/28 02:32:35;;;;;;;9.70;5.20;;;-0.80;99.90;;;;;;5046989;28;20469;-55
2024/01/28 02:35:02;;;;;;;13.00;5.80;;;-0.80;99.90;;;;;;5043156;28;20947;-54
2024/01/28 02:37:28;;;;;;;13.13;5.60;;;-0.80;99.90;;;;;;5047119;28;20516;-55
2024/01/28 02:39:55;;;;;;;10.73;4.73;;;-0.90;99.90;;;;;;5049074;28;20473;-55
2024/01/28 02:42:23;;;;;;;12.80;6.03;;;-0.90;99.90;;;;;;5048234;28;20486;-56
2024/01/28 02:44:49;;;;;;;9.93;5.53;;;-1.00;99.90;;;;;;5045710;28;20863;-55
2024/01/28 02:47:16;;;;;;;11.30;4.97;;;-1.00;99.90;;;;;;5045046;28;20458;-56
2024/01/28 02:49:42;;;;;;;15.87;6.03;;;-1.00;99.90;;;;;;5043191;28;20563;-56
2024/01/28 02:52:09;;;;;;;12.33;5.07;;;-1.00;99.90;;;;;;5043834;28;20465;-56
2024/01/28 02:54:35;;;;;;;9.43;5.20;;;-1.10;99.90;;;;;;5046313;28;20469;-56
2024/01/28 02:57:02;;;;;;;13.40;6.37;;;-1.10;99.90;;;;;;5046720;28;20571;-55
2024/01/28 02:59:30;;;;;;;15.23;5.67;;;-1.10;99.90;;;;;;5048174;28;20504;-55
2024/01/28 03:01:57;;;;;;;7.23;5.30;;;-1.10;99.90;;;;;;5045381;28;20466;-55
2024/01/28 03:04:24;;;;;;;14.13;5.73;;;-1.10;99.90;;;;;;5051079;28;20552;-56
2024/01/28 03:06:50;;;;;;;18.50;5.30;;;-1.00;99.90;;;;;;5048419;28;20945;-55
2024/01/28 03:09:18;;;;;;;10.97;5.23;;;-1.10;99.90;;;;;;5042083;28;20575;-57
2024/01/28 03:11:46;;;;;;;14.80;5.87;;;-1.00;99.90;;;;;;5047842;28;20477;-55
2024/01/28 03:14:13;;;;;;;12.13;5.53;;;-1.10;99.90;;;;;;5048555;28;20461;-56
2024/01/28 03:16:41;;;;;;;13.80;6.17;;;-1.10;99.90;;;;;;5048620;28;20469;-55
2024/01/28 03:19:08;;;;;;;9.43;5.07;;;-1.10;99.90;;;;;;5046576;28;20509;-55
2024/01/28 03:21:35;;;;;;;10.57;5.00;;;-1.10;99.90;;;;;;5046095;28;20470;-55
2024/01/28 03:24:01;;;;;;;13.93;5.90;;;-1.10;99.90;;;;;;5051636;28;20511;-56
2024/01/28 03:26:28;;;;;;;17.00;6.20;;;-1.10;99.90;;;;;;5049492;28;20576;-55
2024/01/28 03:28:54;;;;;;;12.40;5.50;;;-1.10;99.90;;;;;;5048469;28;20531;-55
2024/01/28 03:31:21;;;;;;;8.60;5.20;;;-1.10;99.90;;;;;;5048114;28;20458;-56
2024/01/28 03:33:49;;;;;;;12.87;5.83;;;-1.20;99.90;;;;;;5046170;28;20589;-55
2024/01/28 03:36:15;;;;;;;12.53;5.90;;;-1.20;99.90;;;;;;5042708;28;20964;-55
2024/01/28 03:38:42;;;;;;;10.97;5.37;;;-1.30;99.90;;;;;;5047262;28;20933;-55
2024/01/28 03:41:09;;;;;;;10.83;5.00;;;-1.20;99.90;;;;;;5042027;28;20952;-55
2024/01/28 03:43:35;;;;;;;12.33;6.03;;;-1.30;99.90;;;;;;5046476;28;20498;-55
2024/01/28 03:46:02;;;;;;;13.30;5.03;;;-1.30;99.90;;;;;;5046958;28;20518;-55
2024/01/28 03:48:29;;;;;;;10.27;5.17;;;-1.30;99.90;;;;;;5048781;28;20485;-55
2024/01/28 03:50:57;;;;;;;11.93;4.97;;;-1.20;99.90;;;;;;5043432;28;20507;-55
2024/01/28 03:53:24;;;;;;;11.83;6.10;;;-1.30;99.90;;;;;;5046120;28;20501;-56
2024/01/28 03:55:50;;;;;;;15.63;5.43;;;-1.30;99.90;;;;;;5049298;28;20508;-54
2024/01/28 03:58:17;;;;;;;10.77;5.10;;;-1.30;99.90;;;;;;5047490;28;20489;-55
2024/01/28 04:00:43;;;;;;;13.93;6.20;;;-1.30;99.90;;;;;;5046308;28;20972;-55
2024/01/28 04:03:10;;;;;;;10.70;6.57;;;-1.30;99.90;;;;;;5042027;28;20481;-55
2024/01/28 04:05:37;;;;;;;12.27;5.10;;;-1.30;99.90;;;;;;5043117;28;20484;-55
2024/01/28 04:08:09;;;;;;;15.33;5.50;;;-1.30;99.90;;;;;;5041414;28;20464;-55
2024/01/28 04:10:35;;;;;;;16.67;5.03;;;-1.30;99.90;;;;;;5046995;28;20489;-55
2024/01/28 04:13:02;;;;;;;12.63;5.20;;;-1.30;99.90;;;;;;5050970;28;20486;-55
2024/01/28 04:15:29;;;;;;;12.00;6.07;;;-1.30;99.90;;;;;;5048912;28;20458;-56
2024/01/28 04:17:55;;;;;;;10.27;5.53;;;-1.30;99.90;;;;;;5048364;28;20955;-55
2024/01/28 04:20:22;;;;;;;13.67;6.07;;;-1.30;99.90;;;;;;5044137;28;20998;-55
2024/01/28 04:22:49;;;;;;;15.03;5.70;;;-1.40;99.90;;;;;;5052602;28;20503;-55
2024/01/28 04:25:18;;;;;;;12.93;5.93;;;-1.40;99.90;;;;;;5050686;28;20499;-55
2024/01/28 04:27:44;;;;;;;10.80;5.40;;;-1.50;99.90;;;;;;5057852;28;20552;-54
2024/01/28 04:30:11;;;;;;;19.10;6.00;;;-1.50;99.90;;;;;;5053556;28;20486;-55
2024/01/28 04:32:37;;;;;;;11.17;5.53;;;-1.50;99.90;;;;;;5052196;28;20465;-55
2024/01/28 04:35:04;;;;;;;13.53;5.50;;;-1.40;99.90;;;;;;5052800;28;20454;-55
2024/01/28 04:37:31;;;;;;;14.67;6.27;;;-1.50;99.90;;;;;;5043707;28;20214;-56
2024/01/28 04:39:58;;;;;;;13.20;7.33;;;-1.50;99.90;;;;;;5050545;28;20525;-56
2024/01/28 04:42:26;;;;;;;13.40;6.20;;;-1.50;99.90;;;;;;5053252;28;20958;-56
2024/01/28 04:44:53;;;;;;;10.47;5.27;;;-1.50;99.90;;;;;;5042946;28;20534;-56
2024/01/28 04:47:19;;;;;;;12.73;5.43;;;-1.50;99.90;;;;;;5049166;28;20548;-56
2024/01/28 04:49:46;;;;;;;11.63;6.20;;;-1.60;99.90;;;;;;5051221;28;20579;-56
2024/01/28 04:52:12;;;;;;;15.67;6.53;;;-1.60;99.90;;;;;;5051726;28;20442;-56
2024/01/28 04:54:39;;;;;;;17.73;7.30;;;-1.60;99.90;;;;;;5052338;28;20493;-56
2024/01/28 04:57:06;;;;;;;13.40;7.27;;;-1.60;99.90;;;;;;5048511;28;20896;-55
2024/01/28 04:59:34;;;;;;;10.40;6.40;;;-1.60;99.90;;;;;;5046624;28;20487;-55
2024/01/28 05:02:00;;;;;;;18.97;8.03;;;-1.60;99.90;;;;;;5046742;28;20457;-55
2024/01/28 05:04:27;;;;;;;9.30;6.30;;;-1.60;99.90;;;;;;5050597;28;20470;-55
2024/01/28 05:06:54;;;;;;;13.90;6.50;;;-1.60;99.90;;;;;;5047708;28;20524;-55
2024/01/28 05:09:21;;;;;;;16.47;7.03;;;-1.60;99.90;;;;;;5050653;28;20532;-56
2024/01/28 05:11:48;;;;;;;18.17;7.60;;;-1.60;99.90;;;;;;5047652;28;20458;-55
2024/01/28 05:14:15;;;;;;;11.30;6.63;;;-1.50;99.90;;;;;;5046368;28;20458;-56
2024/01/28 05:16:47;;;;;;;12.27;6.50;;;-1.60;99.90;;;;;;5044004;28;20473;-56
2024/01/28 05:19:13;;;;;;;13.93;7.10;;;-1.60;99.90;;;;;;5046601;28;20556;-56
2024/01/28 05:21:40;;;;;;;12.70;6.37;;;-1.60;99.90;;;;;;5039709;28;20515;-56
2024/01/28 05:24:07;;;;;;;17.63;6.90;;;-1.60;99.90;;;;;;5048090;28;20551;-56
2024/01/28 05:26:34;;;;;;;17.00;7.83;;;-1.60;99.90;;;;;;5048911;28;20501;-56
2024/01/28 05:29:05;;;;;;;18.00;6.20;;;-1.60;99.90;;;;;;5045474;28;20497;-53
2024/01/28 05:31:32;;;;;;;14.80;6.47;;;-1.70;99.90;;;;;;5050273;28;20484;-53
2024/01/28 05:34:00;;;;;;;14.57;6.53;;;-1.70;99.90;;;;;;5047657;28;20454;-52
2024/01/28 05:36:26;;;;;;;18.80;7.13;;;-1.70;99.90;;;;;;5050020;28;20453;-52
2024/01/28 05:38:54;;;;;;;11.70;6.00;;;-1.70;99.90;;;;;;5046084;28;20481;-52
2024/01/28 05:41:21;;;;;;;15.57;7.47;;;-1.70;99.90;;;;;;5055516;28;20489;-53
2024/01/28 05:43:47;;;;;;;16.73;6.90;;;-1.80;99.90;;;;;;5049807;28;20481;-51
2024/01/28 05:46:14;;;;;;;13.70;6.30;;;-1.80;99.90;;;;;;5049300;28;20517;-52
2024/01/28 05:48:40;;;;;;;9.40;5.80;;;-1.80;99.90;;;;;;5049226;28;20893;-52
2024/01/28 05:51:08;;;;;;;18.53;6.27;;;-1.80;99.90;;;;;;5045800;28;20513;-52
2024/01/28 05:53:35;;;;;;;10.23;5.80;;;-1.80;99.90;;;;;;5045416;28;20458;-51
2024/01/28 05:56:03;;;;;;;12.97;6.67;;;-1.80;99.90;;;;;;5045636;28;21035;-51
2024/01/28 05:58:30;;;;;;;13.73;6.03;;;-1.80;99.90;;;;;;5051568;28;20470;-52
2024/01/28 06:01:01;;;;;;;12.03;6.20;;;-1.80;99.90;;;;;;5050591;28;20960;-51
2024/01/28 06:03:27;;;;;;;13.57;5.40;;;-1.80;99.90;;;;;;5048181;28;20458;-52
2024/01/28 06:05:54;;;;;;;14.33;6.07;;;-1.80;99.90;;;;;;5052466;28;20465;-53
2024/01/28 06:08:23;;;;;;;22.63;6.10;;;-1.90;99.90;;;;;;5046899;28;20924;-52
2024/01/28 06:10:49;;;;;;;27.20;7.60;;;-1.90;99.90;;;;;;5046372;28;20480;-51
2024/01/28 06:13:16;;;;;;;9.10;5.83;;;-1.90;99.90;;;;;;5045200;28;20553;-53
2024/01/28 06:15:42;;;;;;;22.20;6.13;;;-1.80;99.90;;;;;;5050365;28;20489;-52
2024/01/28 06:18:09;;;;;;;15.60;7.13;;;-1.90;99.90;;;;;;5048744;28;20555;-52
2024/01/28 06:20:36;;;;;;;13.00;6.00;;;-1.90;99.90;;;;;;5042359;28;20524;-52
2024/01/28 06:23:03;;;;;;;13.00;5.93;;;-1.80;99.90;;;;;;5048302;28;20544;-53
2024/01/28 06:25:31;;;;;;;15.23;5.50;;;-1.80;99.90;;;;;;5054340;28;20464;-52
2024/01/28 06:27:58;;;;;;;14.93;6.17;;;-1.80;99.90;;;;;;5045244;28;20497;-53
2024/01/28 06:30:26;;;;;;;11.93;5.53;;;-1.80;99.90;;;;;;5052809;28;20434;-52
2024/01/28 06:32:52;;;;;;;10.50;5.97;;;-1.90;99.90;;;;;;5053455;28;20516;-52
2024/01/28 06:35:19;;;;;;;8.93;5.57;;;-1.90;99.90;;;;;;5052297;28;20469;-52
2024/01/28 06:37:45;;;;;;;12.63;5.80;;;-1.90;99.90;;;;;;5043120;28;20485;-52
2024/01/28 06:40:12;;;;;;;10.47;6.17;;;-1.90;99.90;;;;;;5051484;28;20515;-52
2024/01/28 06:42:40;;;;;;;9.77;5.50;;;-1.90;99.90;;;;;;5048597;28;20462;-53
2024/01/28 06:45:08;;;;;;;9.20;5.13;;;-1.90;99.90;;;;;;5049938;28;20458;-52
2024/01/28 06:47:35;;;;;;;12.90;5.90;;;-1.90;99.90;;;;;;5046000;28;20513;-52
2024/01/28 06:50:02;;;;;;;21.57;6.43;;;-1.90;99.90;;;;;;5047733;28;20512;-52
2024/01/28 06:52:29;;;;;;;15.10;5.67;;;-1.80;99.90;;;;;;5049533;28;20465;-52
2024/01/28 06:54:55;;;;;;;12.67;5.80;;;-1.90;99.90;;;;;;5046465;28;20539;-52
2024/01/28 06:57:22;;;;;;;9.67;5.20;;;-1.80;99.90;;;;;;5048850;28;20833;-52
2024/01/28 06:59:50;;;;;;;13.00;6.50;;;-1.80;99.90;;;;;;5044584;28;20478;-51
2024/01/28 07:02:16;;;;;;;10.40;5.33;;;-1.80;99.90;;;;;;5046083;28;20520;-53
2024/01/28 07:04:43;;;;;;;10.67;5.60;;;-1.80;99.90;;;;;;5045339;28;20908;-52
2024/01/28 07:07:09;;;;;;;10.77;5.93;;;-1.80;99.90;;;;;;5044039;28;20485;-52
2024/01/28 07:09:36;;;;;;;9.80;5.50;;;-1.80;99.90;;;;;;5046545;28;20514;-52
2024/01/28 07:12:03;;;;;;;10.57;5.40;;;-1.80;99.90;;;;;;5041646;28;20486;-52
2024/01/28 07:14:30;;;;;;;8.77;4.87;;;-1.80;98.70;;;;;;5045310;28;20549;-51
2024/01/28 07:16:58;;;;;;;10.90;5.97;;;-1.80;81.20;;;;;;5049193;28;20455;-51
2024/01/28 07:19:24;;;;;;;19.80;6.03;;;-1.80;78.00;;;;;;5043977;28;20496;-52
2024/01/28 07:21:51;;;;;;;11.30;5.70;;;-1.70;85.20;;;;;;5048884;28;20493;-51
2024/01/28 07:24:19;;;;;;;12.83;5.87;;;-1.70;20.70;;;;;;5051472;28;20485;-51
2024/01/28 07:26:46;;;;;;;11.93;6.10;;;-1.70;74.20;;;;;;5049668;28;20987;-52
2024/01/28 07:29:12;;;;;;;11.63;5.80;;;-1.60;81.10;;;;;;5051158;28;20469;-51
2024/01/28 07:31:40;;;;;;;11.50;5.33;;;-1.60;91.50;;;;;;5051394;28;20453;-51
2024/01/28 07:34:08;;;;;;;15.00;6.57;;;-1.50;99.90;;;;;;5049866;28;20527;-52
2024/01/28 07:36:34;;;;;;;13.50;5.67;;;-1.40;99.90;;;;;;5049502;28;20453;-52
2024/01/28 07:39:04;;;;;;;14.63;5.00;;;-1.50;99.90;;;;;;5048207;28;21362;-53
2024/01/28 07:41:34;;;;;;;10.17;5.23;;;-1.40;99.90;;;;;;5044444;28;20465;-53
2024/01/28 07:44:00;;;;;;;14.03;5.60;;;-1.30;99.90;;;;;;5048593;28;20458;-52
2024/01/28 07:46:27;;;;;;;11.03;5.90;;;-1.20;99.90;;;;;;5050709;28;20461;-52
2024/01/28 07:48:54;;;;;;;16.97;6.93;;;-1.10;87.60;;;;;;5051182;28;20599;-52
2024/01/28 07:51:21;;;;;;;10.47;4.90;;;-0.90;24.70;;;;;;5045853;28;20500;-53
2024/01/28 07:53:48;;;;;;;11.43;6.40;;;-0.50;27.30;;;;;;5046626;28;20489;-52
2024/01/28 07:56:16;;;;;;;9.77;5.80;;;-0.10;46.90;;;;;;5044448;28;20502;-53
2024/01/28 07:58:42;;;;;;;12.60;6.00;;;0.00;76.10;;;;;;5045786;28;20488;-52
2024/01/28 08:01:09;;;;;;;13.30;6.30;;;0.00;99.90;;;;;;5050182;28;20523;-53
2024/01/28 08:03:36;;;;;;;8.67;5.40;;;0.20;99.90;;;;;;5045670;28;21086;-52
2024/01/28 08:06:04;;;;;;;10.10;5.63;;;0.20;99.90;;;;;;5047454;28;20461;-52
2024/01/28 08:08:33;;;;;;;13.57;6.27;;;0.20;99.90;;;;;;5047510;28;21010;-53
2024/01/28 08:11:00;;;;;;;15.23;6.20;;;0.50;99.90;;;;;;5047159;28;20453;-52
2024/01/28 08:13:27;;;;;;;18.40;8.50;;;1.10;99.90;;;;;;5045593;28;20511;-52
2024/01/28 08:15:59;;;;;;;14.63;7.23;;;1.30;99.90;;;;;;5063265;28;20480;-53
2024/01/28 08:18:25;;;;;;;14.93;6.17;;;1.40;99.90;;;;;;5060445;28;20573;-53
2024/01/28 08:20:52;;;;;;;11.67;5.60;;;1.60;99.90;;;;;;5063728;28;20462;-52
2024/01/28 08:23:18;;;;;;;14.03;6.00;;;1.90;99.90;;;;;;5061954;28;20480;-52
2024/01/28 08:25:46;;;;;;;12.80;6.07;;;2.20;99.90;;;;;;5064635;28;20461;-51
2024/01/28 08:28:13;;;;;;;18.80;7.00;;;1.90;99.90;;;;;;5049130;28;20580;-52
2024/01/28 08:30:40;;;;;;;13.27;6.33;;;2.10;99.90;;;;;;5047719;28;20473;-51
2024/01/28 08:33:06;;;;;;;18.47;7.33;;;2.40;99.90;;;;;;5047596;28;20461;-52
2024/01/28 08:35:33;;;;;;;16.27;6.27;;;2.10;99.90;;;;;;5047608;28;20458;-53
2024/01/28 08:37:59;;;;;;;16.47;6.60;;;2.70;99.90;;;;;;5048346;28;20454;-53
2024/01/28 08:40:26;;;;;;;14.73;6.87;;;2.80;99.90;;;;;;5047589;28;21026;-52
2024/01/28 08:42:54;;;;;;;16.13;6.53;;;3.30;99.90;;;;;;5047151;28;20963;-51
2024/01/28 08:45:20;;;;;;;14.37;6.57;;;3.80;21.20;;;;;;5048749;28;20482;-51
2024/01/28 08:47:47;;;;;;;20.57;6.97;;;4.50;53.10;;;;;;5046882;28;20481;-53
2024/01/28 08:50:14;;;;;;;17.53;7.03;;;5.20;55.90;;;;;;5039216;28;20501;-52
2024/01/28 08:52:42;;;;;;;14.13;7.10;;;5.00;98.90;;;;;;5045320;28;20461;-52
2024/01/28 08:55:09;;;;;;;15.07;7.10;;;5.50;95.60;;;;;;5050309;28;20519;-52
2024/01/28 08:57:36;;;;;;;17.03;7.40;;;5.50;94.80;;;;;;5049675;28;20555;-52
2024/01/28 09:00:05;;;;;;;16.83;7.00;;;5.10;94.70;;;;;;5050471;28;20530;-52
2024/01/28 09:02:35;;;;;;;17.30;7.70;;;4.40;72.20;;;;;;5049775;28;20468;-52
2024/01/28 09:05:02;;;;;;;21.77;7.30;;;5.40;80.60;;;;;;5048494;28;20537;-52
2024/01/28 09:07:29;;;;;;;14.77;6.83;;;6.50;99.90;;;;;;5050989;28;20485;-52
2024/01/28 09:09:55;;;;;;;18.53;7.80;;;7.40;99.90;;;;;;5044882;28;20532;-51
2024/01/28 09:12:22;;;;;;;15.93;8.10;;;7.60;99.90;;;;;;5047638;28;20497;-52
2024/01/28 09:14:48;;;;;;;19.40;8.17;;;7.40;99.90;;;;;;5046613;28;21027;-52
2024/01/28 09:17:17;;;;;;;14.13;7.60;;;7.00;99.90;;;;;;5044803;28;20524;-52
2024/01/28 09:19:43;;;;;;;16.20;7.47;;;6.30;99.90;;;;;;5044923;28;20987;-51
2024/01/28 09:22:10;;;;;;;17.57;8.50;;;5.50;99.90;;;;;;5041039;28;20901;-51
2024/01/28 09:24:38;;;;;;;13.93;7.60;;;4.60;97.60;;;;;;5040637;28;20552;-51
2024/01/28 09:27:06;;;;;;;16.47;7.20;;;4.50;85.90;;;;;;5048786;28;20573;-51
2024/01/28 09:29:32;;;;;;;18.93;7.50;;;4.60;85.70;;;;;;5047178;28;20573;-51
2024/01/28 09:32:00;;;;;;;12.73;7.27;;;4.80;78.80;;;;;;5041289;28;20550;-56
2024/01/28 09:34:28;;;;;;;13.10;7.30;;;4.30;78.90;;;;;;5046581;28;20467;-52
2024/01/28 09:36:55;;;;;;;31.53;8.53;;;4.20;71.30;;;;;;5047467;28;20471;-52
2024/01/28 09:39:22;;;;;;;17.77;8.23;;;4.00;58.40;;;;;;5046709;28;20987;-53
2024/01/28 09:41:55;;;;;;;15.87;7.40;;;3.90;49.30;;;;;;5050122;28;21186;-52
2024/01/28 09:44:22;;;;;;;15.20;8.00;;;4.20;62.40;;;;;;5046391;28;20498;-52
2024/01/28 09:46:49;;;;;;;17.30;8.93;;;4.30;61.10;;;;;;5046504;28;22364;-51
2024/01/28 09:49:17;;;;;;;20.13;8.50;;;4.10;53.70;;;;;;5045997;28;22193;-52
2024/01/28 09:51:46;;;;;;;18.47;8.73;;;4.40;62.40;;;;;;5045188;28;21025;-53
2024/01/28 09:54:13;;;;;;;18.57;7.37;;;4.80;74.20;;;;;;5045573;28;20458;-51
2024/01/28 09:56:41;;;;;;;14.80;6.50;;;5.00;95.50;;;;;;5046434;28;20553;-52
2024/01/28 09:59:09;;;;;;;17.50;7.23;;;5.90;99.90;;;;;;5048358;28;20484;-52
2024/01/28 10:01:36;;;;;;;17.20;7.40;;;6.80;99.90;;;;;;5046788;28;20963;-52
2024/01/28 10:04:03;;;;;;;17.43;7.37;;;7.90;99.90;;;;;;5044904;28;20493;-52
2024/01/28 10:06:30;;;;;;;15.13;6.97;;;7.80;99.90;;;;;;5048579;28;20496;-52
2024/01/28 10:08:58;;;;;;;18.60;7.50;;;8.10;99.90;;;;;;5047615;28;20561;-52
2024/01/28 10:11:24;;;;;;;15.53;7.70;;;8.30;99.90;;;;;;5045612;28;20462;-52
2024/01/28 10:13:53;;;;;;;12.73;6.20;;;9.00;99.90;;;;;;5046795;28;20461;-52
2024/01/28 10:16:23;;;;;;;12.50;6.50;;;9.40;99.90;;;;;;5047570;28;20581;-52
2024/01/28 10:18:50;;;;;;;17.33;6.77;;;10.90;99.90;;;;;;5042787;28;20486;-52
2024/01/28 10:21:17;;;;;;;15.17;7.03;;;10.90;99.90;;;;;;5046677;28;20560;-52
2024/01/28 10:23:44;;;;;;;20.83;7.57;;;11.10;99.90;;;;;;5041920;28;20457;-52
2024/01/28 10:26:12;;;;;;;16.37;7.00;;;10.20;99.90;;;;;;5045789;28;20485;-52
2024/01/28 10:28:38;;;;;;;17.60;6.77;;;11.00;99.90;;;;;;5044443;28;20582;-51
2024/01/28 10:31:05;;;;;;;15.40;6.00;;;11.30;99.90;;;;;;5048085;28;20497;-52
2024/01/28 10:33:32;;;;;;;13.07;6.07;;;9.40;99.90;;;;;;5043080;28;20532;-52
2024/01/28 10:36:01;;;;;;;18.60;6.37;;;8.90;99.90;;;;;;5041621;28;20496;-52
2024/01/28 10:38:31;;;;;;;12.93;5.87;;;8.80;99.90;;;;;;5042345;28;20509;-52
2024/01/28 10:40:59;;;;;;;22.27;5.93;;;8.60;99.90;;;;;;5050845;28;20481;-52
2024/01/28 10:43:30;;;;;;;11.97;6.40;;;8.60;99.90;;;;;;5062014;28;20565;-52
2024/01/28 10:45:59;;;;;;;12.93;5.60;;;8.60;99.90;;;;;;5062981;28;21126;-52
2024/01/28 10:48:26;;;;;;;11.33;5.77;;;9.10;99.90;;;;;;5057228;28;20485;-52
2024/01/28 10:50:54;;;;;;;20.07;5.80;;;8.20;99.90;;;;;;5059278;28;20503;-52
2024/01/28 10:53:22;;;;;;;20.40;5.17;;;8.30;99.90;;;;;;5060360;28;20825;-52
2024/01/28 10:55:49;;;;;;;15.87;5.43;;;9.00;99.90;;;;;;5046106;28;20585;-52
2024/01/28 10:58:17;;;;;;;19.73;6.67;;;8.90;99.90;;;;;;5045397;28;20474;-51
2024/01/28 11:00:45;;;;;;;10.67;5.07;;;9.90;99.90;;;;;;5053361;28;20449;-52
2024/01/28 11:03:12;;;;;;;10.60;4.37;;;10.50;99.90;;;;;;5047587;28;20458;-52
2024/01/28 11:05:40;;;;;;;13.73;5.10;;;9.90;99.90;;;;;;5047802;28;20523;-51
2024/01/28 11:08:07;;;;;;;13.90;5.83;;;8.90;99.90;;;;;;5048003;28;20555;-52
2024/01/28 11:10:34;;;;;;;9.60;4.13;;;8.60;99.90;;;;;;5045940;28;20509;-52
2024/01/28 11:13:03;;;;;;;14.03;4.73;;;9.20;99.90;;;;;;5046350;28;20511;-53
2024/01/28 11:15:31;;;;;;;14.53;5.73;;;9.10;99.90;;;;;;5049297;28;21001;-52
2024/01/28 11:18:01;;;;;;;14.87;4.67;;;8.60;99.90;;;;;;5048482;28;20457;-53
2024/01/28 11:20:28;;;;;;;10.13;4.30;;;8.20;99.90;;;;;;5047383;28;20559;-52
2024/01/28 11:22:56;;;;;;;14.83;4.20;;;8.80;99.90;;;;;;5046040;28;20458;-52
2024/01/28 11:25:25;;;;;;;14.00;4.50;;;8.30;99.90;;;;;;5044071;28;20858;-52
2024/01/28 11:27:53;;;;;;;14.27;4.40;;;7.80;99.90;;;;;;5041014;28;20572;-52
2024/01/28 11:30:23;;;;;;;19.83;4.23;;;7.40;99.90;;;;;;5043615;28;20542;-51
2024/01/28 11:32:52;;;;;;;12.83;5.47;;;7.60;99.90;;;;;;5043043;28;20509;-52
2024/01/28 11:35:20;;;;;;;15.43;4.10;;;7.70;99.90;;;;;;5045908;28;20951;-52
2024/01/28 11:37:52;;;;;;;11.20;3.97;;;7.80;99.90;;;;;;5047225;28;20458;-52
2024/01/28 11:40:23;;;;;;;16.57;5.10;;;8.90;99.90;;;;;;5045406;28;20469;-52
2024/01/28 11:42:51;;;;;;;12.23;4.60;;;8.30;99.90;;;;;;5034359;28;20457;-52
2024/01/28 11:45:19;;;;;;;8.00;4.10;;;8.50;99.90;;;;;;5045606;28;20494;-53
2024/01/28 11:47:46;;;;;;;10.63;4.37;;;8.60;99.90;;;;;;5042514;28;20504;-57
2024/01/28 11:50:13;;;;;;;11.13;4.07;;;8.70;99.90;;;;;;5044956;28;20454;-52
2024/01/28 11:52:42;;;;;;;8.70;3.57;;;9.10;99.90;;;;;;5045459;28;20696;-52
2024/01/28 11:55:13;;;;;;;16.30;4.73;;;8.50;99.90;;;;;;5048439;28;20458;-52
2024/01/28 11:57:41;;;;;;;9.63;3.90;;;8.20;99.90;;;;;;5038810;28;20464;-51
2024/01/28 12:00:10;;;;;;;13.17;4.17;;;8.00;99.90;;;;;;5038873;28;20577;-52
2024/01/28 12:02:37;;;;;;;18.13;4.57;;;7.90;99.90;;;;;;5040080;28;20492;-52
2024/01/28 12:05:04;;;;;;;12.40;4.77;;;7.70;99.90;;;;;;5046080;28;20908;-51
2024/01/28 12:07:32;;;;;;;10.73;3.57;;;7.70;99.90;;;;;;5043882;28;20488;-53
2024/01/28 12:10:01;;;;;;;12.30;4.13;;;7.70;99.90;;;;;;5049824;28;20864;-53
2024/01/28 12:12:29;;;;;;;9.53;3.80;;;7.70;99.90;;;;;;5049023;28;20539;-52
2024/01/28 12:14:58;;;;;;;16.07;4.27;;;7.80;99.90;;;;;;5040765;28;20519;-52
2024/01/28 12:17:25;;;;;;;9.47;4.10;;;7.80;99.90;;;;;;5045103;28;20497;-52
2024/01/28 12:19:51;;;;;;;9.30;4.43;;;7.90;99.90;;;;;;5045553;28;20474;-52
2024/01/28 12:22:18;;;;;;;9.33;3.90;;;8.30;99.90;;;;;;5045599;28;20983;-52
2024/01/28 12:24:48;;;;;;;11.43;3.50;;;10.20;99.90;;;;;;5044852;28;20860;-52
2024/01/28 12:27:17;;;;;;;10.80;3.67;;;9.90;99.90;;;;;;5047519;28;20481;-52
2024/01/28 12:29:44;;;;;;;16.17;4.47;;;10.70;99.90;;;;;;5045582;28;21011;-52
2024/01/28 12:32:11;;;;;;;16.03;4.40;;;10.70;99.90;;;;;;5046179;28;20457;-52
2024/01/28 12:34:37;;;;;;;14.00;5.20;;;12.20;99.90;;;;;;5050285;28;20523;-52
2024/01/28 12:37:04;;;;;;;9.60;3.53;;;13.30;99.90;;;;;;5047125;28;20496;-52
2024/01/28 12:39:31;;;;;;;11.83;4.03;;;15.00;99.90;;;;;;5046486;28;21044;-51